sensor_id;sensor_type;location;lat;lon;timestamp;P1;durP1;ratioP1;P2;durP2;ratioP2
38427;SDS011;24211;49.980;19.776;2024-01-30T00:02:19;55.03;;;22.98;;
38427;SDS011;24211;49.980;19.776;2024-01-30T00:04:46;46.15;;;21.92;;
38427;SDS011;24211;49.980;19.776;2024-01-30T00:07:14;52.90;;;22.63;;
38427;SDS011;24211;49.980;19.776;2024-01-30T00:09:42;50.75;;;22.05;;
38427;SDS011;24211;49.980;19.776;2024-01-30T00:12:09;52.58;;;22.35;;
38427;SDS011;24211;49.980;19.776;2024-01-30T00:14:37;50.63;;;23.02;;
38427;SDS011;24211;49.980;19.776;2024-01-30T00:17:05;49.58;;;22.80;;
38427;SDS011;24211;49.980;19.776;2024-01-30T00:19:32;56.60;;;23.63;;
38427;SDS011;24211;49.980;19.776;2024-01-30T00:22:02;52.85;;;23.02;;
38427;SDS011;24211;49.980;19.776;2024-01-30T00:24:34;54.08;;;23.08;;
38427;SDS011;24211;49.980;19.776;2024-01-30T00:27:03;53.50;;;22.38;;
38427;SDS011;24211;49.980;19.776;2024-01-30T00:29:31;51.72;;;22.67;;
38427;SDS011;24211;49.980;19.776;2024-01-30T00:32:08;53.35;;;22.58;;
38427;SDS011;24211;49.980;19.776;2024-01-30T00:34:35;49.67;;;22.20;;
38427;SDS011;24211;49.980;19.776;2024-01-30T00:37:03;53.58;;;21.95;;
38427;SDS011;24211;49.980;19.776;2024-01-30T00:39:30;48.50;;;22.02;;
38427;SDS011;24211;49.980;19.776;2024-01-30T00:41:59;50.22;;;21.60;;
38427;SDS011;24211;49.980;19.776;2024-01-30T00:44:29;50.42;;;21.83;;
38427;SDS011;24211;49.980;19.776;2024-01-30T00:46:57;45.80;;;19.98;;
38427;SDS011;24211;49.980;19.776;2024-01-30T00:49:25;50.05;;;20.73;;
38427;SDS011;24211;49.980;19.776;2024-01-30T00:51:52;45.85;;;20.25;;
38427;SDS011;24211;49.980;19.776;2024-01-30T00:54:20;43.83;;;19.95;;
38427;SDS011;24211;49.980;19.776;2024-01-30T00:56:47;46.03;;;20.95;;
38427;SDS011;24211;49.980;19.776;2024-01-30T00:59:15;46.78;;;20.75;;
38427;SDS011;24211;49.980;19.776;2024-01-30T01:01:43;46.35;;;20.20;;
38427;SDS011;24211;49.980;19.776;2024-01-30T01:04:10;46.47;;;20.13;;
38427;SDS011;24211;49.980;19.776;2024-01-30T01:06:37;43.78;;;19.08;;
38427;SDS011;24211;49.980;19.776;2024-01-30T01:09:05;43.65;;;18.77;;
38427;SDS011;24211;49.980;19.776;2024-01-30T01:11:32;45.72;;;19.67;;
38427;SDS011;24211;49.980;19.776;2024-01-30T01:14:00;43.38;;;19.58;;
38427;SDS011;24211;49.980;19.776;2024-01-30T01:16:28;48.30;;;19.73;;
38427;SDS011;24211;49.980;19.776;2024-01-30T01:18:55;46.47;;;19.00;;
38427;SDS011;24211;49.980;19.776;2024-01-30T01:21:24;41.60;;;18.60;;
38427;SDS011;24211;49.980;19.776;2024-01-30T01:23:52;43.53;;;18.98;;
38427;SDS011;24211;49.980;19.776;2024-01-30T01:26:20;42.67;;;18.88;;
38427;SDS011;24211;49.980;19.776;2024-01-30T01:28:48;47.60;;;20.55;;
38427;SDS011;24211;49.980;19.776;2024-01-30T01:31:16;49.05;;;20.33;;
38427;SDS011;24211;49.980;19.776;2024-01-30T01:33:45;46.28;;;19.83;;
38427;SDS011;24211;49.980;19.776;2024-01-30T01:36:13;49.15;;;20.48;;
38427;SDS011;24211;49.980;19.776;2024-01-30T01:38:40;47.83;;;20.38;;
38427;SDS011;24211;49.980;19.776;2024-01-30T01:41:08;47.38;;;20.45;;
38427;SDS011;24211;49.980;19.776;2024-01-30T01:43:35;50.30;;;20.73;;
38427;SDS011;24211;49.980;19.776;2024-01-30T01:46:06;50.55;;;20.58;;
38427;SDS011;24211;49.980;19.776;2024-01-30T01:48:35;49.55;;;20.80;;
38427;SDS011;24211;49.980;19.776;2024-01-30T01:51:04;49.20;;;19.98;;
38427;SDS011;24211;49.980;19.776;2024-01-30T01:53:32;47.33;;;19.73;;
38427;SDS011;24211;49.980;19.776;2024-01-30T01:56:00;48.97;;;20.60;;
38427;SDS011;24211;49.980;19.776;2024-01-30T01:58:32;51.03;;;21.88;;
38427;SDS011;24211;49.980;19.776;2024-01-30T02:01:00;51.25;;;21.05;;
38427;SDS011;24211;49.980;19.776;2024-01-30T02:03:30;52.38;;;22.13;;
38427;SDS011;24211;49.980;19.776;2024-01-30T02:05:58;49.30;;;20.60;;
38427;SDS011;24211;49.980;19.776;2024-01-30T02:08:26;51.35;;;20.90;;
38427;SDS011;24211;49.980;19.776;2024-01-30T02:10:54;55.15;;;21.52;;
38427;SDS011;24211;49.980;19.776;2024-01-30T02:13:22;49.60;;;21.38;;
38427;SDS011;24211;49.980;19.776;2024-01-30T02:15:52;49.75;;;20.92;;
38427;SDS011;24211;49.980;19.776;2024-01-30T02:18:20;47.22;;;20.27;;
38427;SDS011;24211;49.980;19.776;2024-01-30T02:20:51;55.40;;;21.67;;
38427;SDS011;24211;49.980;19.776;2024-01-30T02:23:57;49.08;;;20.95;;
38427;SDS011;24211;49.980;19.776;2024-01-30T02:32:12;56.80;;;21.55;;
38427;SDS011;24211;49.980;19.776;2024-01-30T02:35:04;51.55;;;20.92;;
38427;SDS011;24211;49.980;19.776;2024-01-30T02:37:50;48.20;;;20.35;;
38427;SDS011;24211;49.980;19.776;2024-01-30T02:40:18;49.30;;;20.48;;
38427;SDS011;24211;49.980;19.776;2024-01-30T02:42:46;45.28;;;19.45;;
38427;SDS011;24211;49.980;19.776;2024-01-30T02:45:13;50.03;;;20.13;;
38427;SDS011;24211;49.980;19.776;2024-01-30T02:50:34;53.03;;;21.45;;
38427;SDS011;24211;49.980;19.776;2024-01-30T02:53:02;53.90;;;21.02;;
38427;SDS011;24211;49.980;19.776;2024-01-30T02:55:29;53.65;;;21.60;;
38427;SDS011;24211;49.980;19.776;2024-01-30T03:02:02;49.75;;;20.88;;
38427;SDS011;24211;49.980;19.776;2024-01-30T03:04:30;55.47;;;21.25;;
38427;SDS011;24211;49.980;19.776;2024-01-30T03:06:57;55.08;;;22.02;;
38427;SDS011;24211;49.980;19.776;2024-01-30T03:09:25;53.60;;;21.63;;
38427;SDS011;24211;49.980;19.776;2024-01-30T03:11:57;52.47;;;21.65;;
38427;SDS011;24211;49.980;19.776;2024-01-30T03:14:45;56.50;;;21.92;;
38427;SDS011;24211;49.980;19.776;2024-01-30T03:17:12;52.67;;;21.98;;
38427;SDS011;24211;49.980;19.776;2024-01-30T03:19:48;55.53;;;21.60;;
38427;SDS011;24211;49.980;19.776;2024-01-30T03:22:19;52.95;;;21.98;;
38427;SDS011;24211;49.980;19.776;2024-01-30T03:24:46;53.85;;;21.70;;
38427;SDS011;24211;49.980;19.776;2024-01-30T03:27:14;53.92;;;22.58;;
38427;SDS011;24211;49.980;19.776;2024-01-30T03:29:48;62.28;;;23.98;;
38427;SDS011;24211;49.980;19.776;2024-01-30T03:32:16;56.08;;;22.40;;
38427;SDS011;24211;49.980;19.776;2024-01-30T03:34:53;56.67;;;22.97;;
38427;SDS011;24211;49.980;19.776;2024-01-30T03:37:21;59.45;;;21.80;;
38427;SDS011;24211;49.980;19.776;2024-01-30T03:39:50;53.60;;;22.17;;
38427;SDS011;24211;49.980;19.776;2024-01-30T03:42:17;57.75;;;22.85;;
38427;SDS011;24211;49.980;19.776;2024-01-30T03:44:44;58.47;;;23.10;;
38427;SDS011;24211;49.980;19.776;2024-01-30T03:47:12;55.60;;;22.17;;
38427;SDS011;24211;49.980;19.776;2024-01-30T03:49:43;57.33;;;22.95;;
38427;SDS011;24211;49.980;19.776;2024-01-30T03:52:10;51.25;;;22.15;;
38427;SDS011;24211;49.980;19.776;2024-01-30T03:54:49;55.20;;;22.63;;
38427;SDS011;24211;49.980;19.776;2024-01-30T03:57:17;54.45;;;22.23;;
38427;SDS011;24211;49.980;19.776;2024-01-30T03:59:44;55.55;;;22.02;;
38427;SDS011;24211;49.980;19.776;2024-01-30T04:02:18;54.70;;;22.30;;
38427;SDS011;24211;49.980;19.776;2024-01-30T04:04:48;55.72;;;22.25;;
38427;SDS011;24211;49.980;19.776;2024-01-30T04:07:15;53.40;;;21.38;;
38427;SDS011;24211;49.980;19.776;2024-01-30T04:09:45;58.08;;;22.52;;
38427;SDS011;24211;49.980;19.776;2024-01-30T04:12:19;56.95;;;22.58;;
38427;SDS011;24211;49.980;19.776;2024-01-30T04:14:46;54.95;;;21.42;;
38427;SDS011;24211;49.980;19.776;2024-01-30T04:17:14;54.53;;;21.42;;
38427;SDS011;24211;49.980;19.776;2024-01-30T04:19:41;54.47;;;21.75;;
38427;SDS011;24211;49.980;19.776;2024-01-30T04:22:08;49.00;;;20.98;;
38427;SDS011;24211;49.980;19.776;2024-01-30T04:24:36;56.53;;;22.08;;
38427;SDS011;24211;49.980;19.776;2024-01-30T04:27:03;54.97;;;21.67;;
38427;SDS011;24211;49.980;19.776;2024-01-30T04:29:31;54.92;;;22.00;;
38427;SDS011;24211;49.980;19.776;2024-01-30T04:32:00;56.22;;;22.35;;
38427;SDS011;24211;49.980;19.776;2024-01-30T04:34:27;54.40;;;21.92;;
38427;SDS011;24211;49.980;19.776;2024-01-30T04:36:56;51.35;;;21.20;;
38427;SDS011;24211;49.980;19.776;2024-01-30T04:39:24;57.78;;;22.08;;
38427;SDS011;24211;49.980;19.776;2024-01-30T04:41:51;56.95;;;22.70;;
38427;SDS011;24211;49.980;19.776;2024-01-30T04:44:18;63.80;;;23.80;;
38427;SDS011;24211;49.980;19.776;2024-01-30T04:46:46;61.97;;;23.63;;
38427;SDS011;24211;49.980;19.776;2024-01-30T04:49:14;58.85;;;23.30;;
38427;SDS011;24211;49.980;19.776;2024-01-30T04:51:42;59.17;;;23.50;;
38427;SDS011;24211;49.980;19.776;2024-01-30T04:54:10;60.10;;;24.10;;
38427;SDS011;24211;49.980;19.776;2024-01-30T04:56:37;65.53;;;23.10;;
38427;SDS011;24211;49.980;19.776;2024-01-30T04:59:06;59.40;;;23.23;;
38427;SDS011;24211;49.980;19.776;2024-01-30T05:01:36;64.30;;;24.45;;
38427;SDS011;24211;49.980;19.776;2024-01-30T05:04:08;67.63;;;25.23;;
38427;SDS011;24211;49.980;19.776;2024-01-30T05:06:42;72.80;;;26.55;;
38427;SDS011;24211;49.980;19.776;2024-01-30T05:09:10;77.32;;;26.60;;
38427;SDS011;24211;49.980;19.776;2024-01-30T05:11:38;67.15;;;25.52;;
38427;SDS011;24211;49.980;19.776;2024-01-30T05:14:07;68.55;;;25.77;;
38427;SDS011;24211;49.980;19.776;2024-01-30T05:16:39;71.65;;;26.13;;
38427;SDS011;24211;49.980;19.776;2024-01-30T05:19:06;78.07;;;26.55;;
38427;SDS011;24211;49.980;19.776;2024-01-30T05:21:34;72.10;;;26.98;;
38427;SDS011;24211;49.980;19.776;2024-01-30T05:24:01;70.55;;;26.02;;
38427;SDS011;24211;49.980;19.776;2024-01-30T05:26:28;72.28;;;26.63;;
38427;SDS011;24211;49.980;19.776;2024-01-30T05:28:57;75.90;;;26.33;;
38427;SDS011;24211;49.980;19.776;2024-01-30T05:31:24;70.30;;;27.08;;
38427;SDS011;24211;49.980;19.776;2024-01-30T05:33:54;79.97;;;28.30;;
38427;SDS011;24211;49.980;19.776;2024-01-30T05:36:22;71.63;;;26.92;;
38427;SDS011;24211;49.980;19.776;2024-01-30T05:38:49;73.68;;;27.52;;
38427;SDS011;24211;49.980;19.776;2024-01-30T05:41:21;73.50;;;27.33;;
38427;SDS011;24211;49.980;19.776;2024-01-30T05:44:03;63.13;;;25.10;;
38427;SDS011;24211;49.980;19.776;2024-01-30T05:47:00;63.92;;;25.83;;
38427;SDS011;24211;49.980;19.776;2024-01-30T05:49:27;64.93;;;25.92;;
38427;SDS011;24211;49.980;19.776;2024-01-30T05:51:55;69.53;;;26.77;;
38427;SDS011;24211;49.980;19.776;2024-01-30T05:54:22;69.38;;;25.83;;
38427;SDS011;24211;49.980;19.776;2024-01-30T05:56:50;72.55;;;27.27;;
38427;SDS011;24211;49.980;19.776;2024-01-30T05:59:25;76.13;;;28.02;;
38427;SDS011;24211;49.980;19.776;2024-01-30T06:02:07;77.05;;;29.33;;
38427;SDS011;24211;49.980;19.776;2024-01-30T06:04:35;86.85;;;31.58;;
38427;SDS011;24211;49.980;19.776;2024-01-30T06:07:12;70.10;;;29.50;;
38427;SDS011;24211;49.980;19.776;2024-01-30T06:09:40;70.60;;;27.25;;
38427;SDS011;24211;49.980;19.776;2024-01-30T06:12:50;67.15;;;26.92;;
38427;SDS011;24211;49.980;19.776;2024-01-30T06:15:30;72.15;;;27.20;;
38427;SDS011;24211;49.980;19.776;2024-01-30T06:18:01;72.32;;;26.30;;
38427;SDS011;24211;49.980;19.776;2024-01-30T06:20:51;67.13;;;25.52;;
38427;SDS011;24211;49.980;19.776;2024-01-30T06:23:22;62.30;;;25.77;;
38427;SDS011;24211;49.980;19.776;2024-01-30T06:25:49;63.37;;;25.23;;
38427;SDS011;24211;49.980;19.776;2024-01-30T06:28:37;66.45;;;24.25;;
38427;SDS011;24211;49.980;19.776;2024-01-30T06:31:05;67.50;;;25.48;;
38427;SDS011;24211;49.980;19.776;2024-01-30T06:33:33;64.60;;;25.15;;
38427;SDS011;24211;49.980;19.776;2024-01-30T06:36:04;58.67;;;24.58;;
38427;SDS011;24211;49.980;19.776;2024-01-30T06:38:32;66.03;;;26.02;;
38427;SDS011;24211;49.980;19.776;2024-01-30T06:40:59;69.47;;;26.98;;
38427;SDS011;24211;49.980;19.776;2024-01-30T06:43:26;69.75;;;25.15;;
38427;SDS011;24211;49.980;19.776;2024-01-30T06:48:27;65.07;;;27.25;;
38427;SDS011;24211;49.980;19.776;2024-01-30T06:50:56;69.45;;;27.13;;
38427;SDS011;24211;49.980;19.776;2024-01-30T06:53:24;70.47;;;27.57;;
38427;SDS011;24211;49.980;19.776;2024-01-30T06:58:57;70.40;;;26.40;;
38427;SDS011;24211;49.980;19.776;2024-01-30T07:01:45;70.97;;;27.63;;
38427;SDS011;24211;49.980;19.776;2024-01-30T07:04:13;70.65;;;28.65;;
38427;SDS011;24211;49.980;19.776;2024-01-30T07:06:56;71.57;;;27.73;;
38427;SDS011;24211;49.980;19.776;2024-01-30T07:09:25;71.00;;;27.48;;
38427;SDS011;24211;49.980;19.776;2024-01-30T07:11:53;65.10;;;26.95;;
38427;SDS011;24211;49.980;19.776;2024-01-30T07:14:36;64.25;;;25.42;;
38427;SDS011;24211;49.980;19.776;2024-01-30T07:17:04;65.77;;;26.03;;
38427;SDS011;24211;49.980;19.776;2024-01-30T07:19:33;61.53;;;24.55;;
38427;SDS011;24211;49.980;19.776;2024-01-30T07:22:01;56.08;;;24.70;;
38427;SDS011;24211;49.980;19.776;2024-01-30T07:24:28;57.80;;;24.05;;
38427;SDS011;24211;49.980;19.776;2024-01-30T07:26:56;63.25;;;24.58;;
38427;SDS011;24211;49.980;19.776;2024-01-30T07:32:16;66.30;;;25.17;;
38427;SDS011;24211;49.980;19.776;2024-01-30T07:34:45;61.83;;;25.13;;
38427;SDS011;24211;49.980;19.776;2024-01-30T07:37:32;61.85;;;24.88;;
38427;SDS011;24211;49.980;19.776;2024-01-30T07:40:00;61.92;;;25.98;;
38427;SDS011;24211;49.980;19.776;2024-01-30T07:42:29;63.88;;;26.13;;
38427;SDS011;24211;49.980;19.776;2024-01-30T07:44:57;67.95;;;27.08;;
38427;SDS011;24211;49.980;19.776;2024-01-30T07:47:33;62.08;;;27.45;;
38427;SDS011;24211;49.980;19.776;2024-01-30T07:50:00;61.47;;;25.15;;
38427;SDS011;24211;49.980;19.776;2024-01-30T07:52:33;62.50;;;26.10;;
38427;SDS011;24211;49.980;19.776;2024-01-30T07:58:20;63.00;;;25.55;;
38427;SDS011;24211;49.980;19.776;2024-01-30T08:00:47;59.13;;;26.17;;
38427;SDS011;24211;49.980;19.776;2024-01-30T08:06:09;59.85;;;25.92;;
38427;SDS011;24211;49.980;19.776;2024-01-30T08:08:50;59.47;;;26.23;;
38427;SDS011;24211;49.980;19.776;2024-01-30T08:14:12;65.65;;;27.63;;
38427;SDS011;24211;49.980;19.776;2024-01-30T08:17:19;62.28;;;27.00;;
38427;SDS011;24211;49.980;19.776;2024-01-30T08:22:55;65.07;;;29.20;;
38427;SDS011;24211;49.980;19.776;2024-01-30T08:25:27;68.65;;;29.23;;
38427;SDS011;24211;49.980;19.776;2024-01-30T08:27:56;72.72;;;30.13;;
38427;SDS011;24211;49.980;19.776;2024-01-30T08:30:24;67.88;;;29.60;;
38427;SDS011;24211;49.980;19.776;2024-01-30T08:33:03;67.47;;;29.27;;
38427;SDS011;24211;49.980;19.776;2024-01-30T08:35:32;71.38;;;30.35;;
38427;SDS011;24211;49.980;19.776;2024-01-30T08:38:06;67.63;;;29.40;;
38427;SDS011;24211;49.980;19.776;2024-01-30T08:40:33;71.97;;;30.08;;
38427;SDS011;24211;49.980;19.776;2024-01-30T08:43:05;65.47;;;29.27;;
38427;SDS011;24211;49.980;19.776;2024-01-30T08:45:32;72.28;;;30.33;;
38427;SDS011;24211;49.980;19.776;2024-01-30T08:47:59;66.45;;;29.08;;
38427;SDS011;24211;49.980;19.776;2024-01-30T08:50:28;63.25;;;28.17;;
38427;SDS011;24211;49.980;19.776;2024-01-30T08:52:56;67.72;;;29.95;;
38427;SDS011;24211;49.980;19.776;2024-01-30T08:55:23;65.93;;;27.60;;
38427;SDS011;24211;49.980;19.776;2024-01-30T08:57:51;62.33;;;27.67;;
38427;SDS011;24211;49.980;19.776;2024-01-30T09:00:18;62.55;;;27.92;;
38427;SDS011;24211;49.980;19.776;2024-01-30T09:02:49;65.03;;;27.60;;
38427;SDS011;24211;49.980;19.776;2024-01-30T09:05:16;63.67;;;28.33;;
38427;SDS011;24211;49.980;19.776;2024-01-30T09:07:44;62.78;;;27.50;;
38427;SDS011;24211;49.980;19.776;2024-01-30T09:10:12;63.47;;;27.45;;
38427;SDS011;24211;49.980;19.776;2024-01-30T09:12:42;63.33;;;26.98;;
38427;SDS011;24211;49.980;19.776;2024-01-30T09:15:09;62.47;;;27.63;;
38427;SDS011;24211;49.980;19.776;2024-01-30T09:17:37;63.88;;;27.25;;
38427;SDS011;24211;49.980;19.776;2024-01-30T09:20:07;60.00;;;26.92;;
38427;SDS011;24211;49.980;19.776;2024-01-30T09:22:38;63.13;;;27.02;;
38427;SDS011;24211;49.980;19.776;2024-01-30T09:25:08;61.80;;;27.48;;
38427;SDS011;24211;49.980;19.776;2024-01-30T09:27:43;59.40;;;27.05;;
38427;SDS011;24211;49.980;19.776;2024-01-30T09:33:03;58.53;;;26.55;;
38427;SDS011;24211;49.980;19.776;2024-01-30T09:35:40;64.88;;;26.67;;
38427;SDS011;24211;49.980;19.776;2024-01-30T09:38:26;58.10;;;27.27;;
38427;SDS011;24211;49.980;19.776;2024-01-30T09:40:54;58.00;;;26.00;;
38427;SDS011;24211;49.980;19.776;2024-01-30T09:43:37;60.70;;;26.27;;
38427;SDS011;24211;49.980;19.776;2024-01-30T09:46:17;55.08;;;24.85;;
38427;SDS011;24211;49.980;19.776;2024-01-30T09:48:59;58.67;;;26.40;;
38427;SDS011;24211;49.980;19.776;2024-01-30T09:51:51;53.40;;;24.52;;
38427;SDS011;24211;49.980;19.776;2024-01-30T09:54:20;53.42;;;24.75;;
38427;SDS011;24211;49.980;19.776;2024-01-30T09:56:48;54.92;;;24.45;;
38427;SDS011;24211;49.980;19.776;2024-01-30T09:59:15;53.28;;;23.33;;
38427;SDS011;24211;49.980;19.776;2024-01-30T10:01:42;51.72;;;23.85;;
38427;SDS011;24211;49.980;19.776;2024-01-30T10:04:15;56.95;;;24.25;;
38427;SDS011;24211;49.980;19.776;2024-01-30T10:06:42;52.97;;;23.08;;
38427;SDS011;24211;49.980;19.776;2024-01-30T10:09:10;50.17;;;23.38;;
38427;SDS011;24211;49.980;19.776;2024-01-30T10:11:37;53.97;;;23.50;;
38427;SDS011;24211;49.980;19.776;2024-01-30T10:14:05;53.15;;;23.67;;
38427;SDS011;24211;49.980;19.776;2024-01-30T10:16:32;52.65;;;24.13;;
38427;SDS011;24211;49.980;19.776;2024-01-30T10:19:01;48.47;;;23.25;;
38427;SDS011;24211;49.980;19.776;2024-01-30T10:21:29;45.92;;;22.60;;
38427;SDS011;24211;49.980;19.776;2024-01-30T10:23:58;51.70;;;23.30;;
38427;SDS011;24211;49.980;19.776;2024-01-30T10:26:26;54.30;;;23.98;;
38427;SDS011;24211;49.980;19.776;2024-01-30T10:29:14;54.88;;;23.98;;
38427;SDS011;24211;49.980;19.776;2024-01-30T10:34:42;48.00;;;22.25;;
38427;SDS011;24211;49.980;19.776;2024-01-30T10:37:10;51.38;;;23.33;;
38427;SDS011;24211;49.980;19.776;2024-01-30T10:45:53;58.53;;;25.85;;
38427;SDS011;24211;49.980;19.776;2024-01-30T10:48:25;54.45;;;26.05;;
38427;SDS011;24211;49.980;19.776;2024-01-30T10:50:57;58.35;;;25.73;;
38427;SDS011;24211;49.980;19.776;2024-01-30T10:53:29;61.88;;;26.80;;
38427;SDS011;24211;49.980;19.776;2024-01-30T10:56:13;61.28;;;26.40;;
38427;SDS011;24211;49.980;19.776;2024-01-30T10:58:43;61.00;;;27.52;;
38427;SDS011;24211;49.980;19.776;2024-01-30T11:01:16;62.97;;;28.15;;
38427;SDS011;24211;49.980;19.776;2024-01-30T11:03:51;64.70;;;29.30;;
38427;SDS011;24211;49.980;19.776;2024-01-30T11:10:03;92.78;;;36.90;;
38427;SDS011;24211;49.980;19.776;2024-01-30T11:12:37;102.88;;;39.53;;
38427;SDS011;24211;49.980;19.776;2024-01-30T11:15:15;114.28;;;43.70;;
38427;SDS011;24211;49.980;19.776;2024-01-30T11:21:16;110.00;;;44.83;;
38427;SDS011;24211;49.980;19.776;2024-01-30T11:26:35;113.70;;;45.50;;
38427;SDS011;24211;49.980;19.776;2024-01-30T11:29:03;103.60;;;43.45;;
38427;SDS011;24211;49.980;19.776;2024-01-30T11:31:55;90.88;;;40.88;;
38427;SDS011;24211;49.980;19.776;2024-01-30T11:37:45;82.75;;;36.08;;
38427;SDS011;24211;49.980;19.776;2024-01-30T11:40:16;70.53;;;31.63;;
38427;SDS011;24211;49.980;19.776;2024-01-30T11:42:43;69.82;;;30.80;;
38427;SDS011;24211;49.980;19.776;2024-01-30T11:45:12;66.22;;;29.40;;
38427;SDS011;24211;49.980;19.776;2024-01-30T11:47:40;63.40;;;29.20;;
38427;SDS011;24211;49.980;19.776;2024-01-30T11:50:10;63.70;;;28.50;;
38427;SDS011;24211;49.980;19.776;2024-01-30T11:52:44;61.42;;;28.25;;
38427;SDS011;24211;49.980;19.776;2024-01-30T11:55:11;61.63;;;29.35;;
38427;SDS011;24211;49.980;19.776;2024-01-30T11:57:43;67.28;;;31.30;;
38427;SDS011;24211;49.980;19.776;2024-01-30T12:00:17;63.60;;;30.10;;
38427;SDS011;24211;49.980;19.776;2024-01-30T12:02:57;72.90;;;33.33;;
38427;SDS011;24211;49.980;19.776;2024-01-30T12:06:00;76.20;;;34.53;;
38427;SDS011;24211;49.980;19.776;2024-01-30T12:08:30;76.88;;;36.15;;
38427;SDS011;24211;49.980;19.776;2024-01-30T12:10:58;77.30;;;36.42;;
38427;SDS011;24211;49.980;19.776;2024-01-30T12:13:27;81.65;;;35.88;;
38427;SDS011;24211;49.980;19.776;2024-01-30T12:16:00;76.22;;;35.25;;
38427;SDS011;24211;49.980;19.776;2024-01-30T12:18:29;77.85;;;35.33;;
38427;SDS011;24211;49.980;19.776;2024-01-30T12:20:59;75.70;;;34.72;;
38427;SDS011;24211;49.980;19.776;2024-01-30T12:27:08;66.80;;;30.88;;
38427;SDS011;24211;49.980;19.776;2024-01-30T12:29:41;65.43;;;31.35;;
38427;SDS011;24211;49.980;19.776;2024-01-30T12:32:14;63.22;;;30.95;;
38427;SDS011;24211;49.980;19.776;2024-01-30T12:34:54;63.22;;;30.20;;
38427;SDS011;24211;49.980;19.776;2024-01-30T12:37:29;61.75;;;29.38;;
38427;SDS011;24211;49.980;19.776;2024-01-30T12:39:57;62.90;;;28.88;;
38427;SDS011;24211;49.980;19.776;2024-01-30T12:42:25;58.60;;;28.45;;
38427;SDS011;24211;49.980;19.776;2024-01-30T12:44:56;53.90;;;26.50;;
38427;SDS011;24211;49.980;19.776;2024-01-30T12:47:25;49.92;;;24.48;;
38427;SDS011;24211;49.980;19.776;2024-01-30T12:49:53;48.13;;;23.73;;
38427;SDS011;24211;49.980;19.776;2024-01-30T12:52:44;48.42;;;23.30;;
38427;SDS011;24211;49.980;19.776;2024-01-30T12:55:15;48.40;;;23.60;;
38427;SDS011;24211;49.980;19.776;2024-01-30T12:57:45;46.10;;;21.25;;
38427;SDS011;24211;49.980;19.776;2024-01-30T13:00:12;41.38;;;20.55;;
38427;SDS011;24211;49.980;19.776;2024-01-30T13:02:40;38.60;;;19.08;;
38427;SDS011;24211;49.980;19.776;2024-01-30T13:05:09;38.15;;;19.10;;
38427;SDS011;24211;49.980;19.776;2024-01-30T13:07:37;36.75;;;18.15;;
38427;SDS011;24211;49.980;19.776;2024-01-30T13:10:04;34.55;;;17.63;;
38427;SDS011;24211;49.980;19.776;2024-01-30T13:12:33;32.65;;;16.77;;
38427;SDS011;24211;49.980;19.776;2024-01-30T13:15:00;32.03;;;16.13;;
38427;SDS011;24211;49.980;19.776;2024-01-30T13:17:28;31.88;;;15.63;;
38427;SDS011;24211;49.980;19.776;2024-01-30T13:19:56;30.60;;;16.00;;
38427;SDS011;24211;49.980;19.776;2024-01-30T13:22:36;32.03;;;15.80;;
38427;SDS011;24211;49.980;19.776;2024-01-30T13:25:05;29.38;;;14.63;;
38427;SDS011;24211;49.980;19.776;2024-01-30T13:27:34;29.17;;;14.68;;
38427;SDS011;24211;49.980;19.776;2024-01-30T13:30:02;29.92;;;15.23;;
38427;SDS011;24211;49.980;19.776;2024-01-30T13:32:31;29.55;;;14.40;;
38427;SDS011;24211;49.980;19.776;2024-01-30T13:34:58;27.45;;;13.57;;
38427;SDS011;24211;49.980;19.776;2024-01-30T13:37:26;28.52;;;14.48;;
38427;SDS011;24211;49.980;19.776;2024-01-30T13:39:54;28.02;;;13.73;;
38427;SDS011;24211;49.980;19.776;2024-01-30T13:42:21;27.15;;;13.10;;
38427;SDS011;24211;49.980;19.776;2024-01-30T13:44:49;24.10;;;12.30;;
38427;SDS011;24211;49.980;19.776;2024-01-30T13:47:17;26.40;;;12.90;;
38427;SDS011;24211;49.980;19.776;2024-01-30T13:49:45;24.98;;;11.80;;
38427;SDS011;24211;49.980;19.776;2024-01-30T13:52:13;24.52;;;12.25;;
38427;SDS011;24211;49.980;19.776;2024-01-30T13:54:41;24.75;;;11.65;;
38427;SDS011;24211;49.980;19.776;2024-01-30T13:57:10;24.42;;;11.80;;
38427;SDS011;24211;49.980;19.776;2024-01-30T13:59:38;23.80;;;11.05;;
38427;SDS011;24211;49.980;19.776;2024-01-30T14:02:05;23.63;;;11.35;;
38427;SDS011;24211;49.980;19.776;2024-01-30T14:04:34;24.73;;;11.93;;
38427;SDS011;24211;49.980;19.776;2024-01-30T14:07:04;25.40;;;12.27;;
38427;SDS011;24211;49.980;19.776;2024-01-30T14:09:33;26.13;;;13.00;;
38427;SDS011;24211;49.980;19.776;2024-01-30T14:12:02;23.40;;;11.10;;
38427;SDS011;24211;49.980;19.776;2024-01-30T14:14:29;21.73;;;11.43;;
38427;SDS011;24211;49.980;19.776;2024-01-30T14:16:56;25.10;;;11.32;;
38427;SDS011;24211;49.980;19.776;2024-01-30T14:19:25;25.58;;;11.52;;
38427;SDS011;24211;49.980;19.776;2024-01-30T14:21:52;24.25;;;10.82;;
38427;SDS011;24211;49.980;19.776;2024-01-30T14:24:19;23.13;;;10.98;;
38427;SDS011;24211;49.980;19.776;2024-01-30T14:26:47;25.60;;;11.15;;
38427;SDS011;24211;49.980;19.776;2024-01-30T14:29:14;24.42;;;11.18;;
38427;SDS011;24211;49.980;19.776;2024-01-30T14:31:41;23.73;;;11.40;;
38427;SDS011;24211;49.980;19.776;2024-01-30T14:34:08;26.48;;;11.48;;
38427;SDS011;24211;49.980;19.776;2024-01-30T14:36:37;23.58;;;11.55;;
38427;SDS011;24211;49.980;19.776;2024-01-30T14:39:05;22.63;;;11.32;;
38427;SDS011;24211;49.980;19.776;2024-01-30T14:41:33;26.80;;;11.90;;
38427;SDS011;24211;49.980;19.776;2024-01-30T14:44:00;26.52;;;12.27;;
38427;SDS011;24211;49.980;19.776;2024-01-30T14:46:30;24.73;;;11.13;;
38427;SDS011;24211;49.980;19.776;2024-01-30T14:48:58;23.52;;;11.32;;
38427;SDS011;24211;49.980;19.776;2024-01-30T14:51:26;24.05;;;10.90;;
38427;SDS011;24211;49.980;19.776;2024-01-30T14:53:56;22.80;;;10.73;;
38427;SDS011;24211;49.980;19.776;2024-01-30T14:56:23;23.17;;;11.23;;
38427;SDS011;24211;49.980;19.776;2024-01-30T14:58:50;26.13;;;11.27;;
38427;SDS011;24211;49.980;19.776;2024-01-30T15:01:18;22.63;;;10.73;;
38427;SDS011;24211;49.980;19.776;2024-01-30T15:03:45;25.33;;;10.65;;
38427;SDS011;24211;49.980;19.776;2024-01-30T15:06:18;24.08;;;10.75;;
38427;SDS011;24211;49.980;19.776;2024-01-30T15:08:55;23.58;;;10.40;;
38427;SDS011;24211;49.980;19.776;2024-01-30T15:11:22;23.95;;;10.57;;
38427;SDS011;24211;49.980;19.776;2024-01-30T15:13:50;26.13;;;10.48;;
38427;SDS011;24211;49.980;19.776;2024-01-30T15:16:18;23.10;;;10.32;;
38427;SDS011;24211;49.980;19.776;2024-01-30T15:18:45;22.52;;;9.43;;
38427;SDS011;24211;49.980;19.776;2024-01-30T15:21:12;21.63;;;9.82;;
38427;SDS011;24211;49.980;19.776;2024-01-30T15:23:39;19.38;;;9.10;;
38427;SDS011;24211;49.980;19.776;2024-01-30T15:26:07;19.38;;;9.10;;
38427;SDS011;24211;49.980;19.776;2024-01-30T15:28:35;21.70;;;9.32;;
38427;SDS011;24211;49.980;19.776;2024-01-30T15:31:06;18.27;;;6.50;;